Time;durP1;ratioP1;P1;durP2;ratioP2;P2;SDS_P1;SDS_P2;PMS_P1;PMS_P2;Temp;Humidity;BMP_temperature;BMP_pressure;BME280_temperature;BME280_humidity;BME280_pressure;Samples;Min_cycle;Max_cycle;Signal;HPM_P1;HPM_P2
2021/10/25 00:01:56;;;;;;;;;20.50;16.75;;;;;20.78;41.61;101472.72;5018849;28;45611;-60
2021/10/25 00:04:22;;;;;;;;;20.50;17.00;;;;;20.79;41.67;101474.41;5018774;28;46210;-57
2021/10/25 00:06:48;;;;;;;;;17.25;17.25;;;;;20.77;41.23;101468.38;5018662;28;45264;-53
2021/10/25 00:09:13;;;;;;;;;19.25;15.25;;;;;20.77;41.69;101465.72;5018778;28;45360;-57
2021/10/25 00:11:40;;;;;;;;;22.25;18.25;;;;;20.77;41.50;101462.25;5018840;28;45377;-61
2021/10/25 00:14:05;;;;;;;;;17.25;17.00;;;;;20.77;41.26;101465.72;5018490;28;45543;-57
2021/10/25 00:16:31;;;;;;;;;17.00;16.00;;;;;20.76;41.69;101469.28;5018736;28;45490;-50
2021/10/25 00:18:56;;;;;;;;;18.50;17.25;;;;;20.77;41.45;101470.16;5018965;28;45396;-58
2021/10/25 00:21:22;;;;;;;;;19.50;17.50;;;;;20.76;41.14;101471.09;5019022;28;45308;-62
2021/10/25 00:23:49;;;;;;;;;17.25;17.00;;;;;20.76;41.04;101463.19;5018345;28;46715;-61
2021/10/25 00:26:14;;;;;;;;;20.25;16.25;;;;;20.74;41.67;101459.72;5018224;28;45346;-62
2021/10/25 00:28:40;;;;;;;;;21.00;17.25;;;;;20.73;41.54;101466.75;5018549;28;45222;-62
2021/10/25 00:31:05;;;;;;;;;20.50;17.50;;;;;20.74;41.07;101462.34;5017227;28;45280;-62
2021/10/25 00:33:30;;;;;;;;;19.00;17.00;;;;;20.73;41.60;101450.94;5018168;28;46532;-63
2021/10/25 00:35:57;;;;;;;;;21.00;19.50;;;;;20.74;41.85;101451.81;5018547;28;45401;-62
2021/10/25 00:38:22;;;;;;;;;19.25;16.50;;;;;20.70;41.52;101445.84;5018379;28;45441;-53
2021/10/25 00:40:47;;;;;;;;;16.50;15.50;;;;;20.70;41.08;101445.84;5018576;28;45378;-57
2021/10/25 00:43:13;;;;;;;;;22.25;20.50;;;;;20.73;41.28;101444.84;5018019;28;46161;-61
2021/10/25 00:45:38;;;;;;;;;21.00;17.25;;;;;20.72;41.14;101440.50;5017969;28;45306;-53
2021/10/25 00:48:04;;;;;;;;;21.25;18.00;;;;;20.72;41.41;101441.38;5018196;28;45458;-53
2021/10/25 00:50:30;;;;;;;;;19.00;16.50;;;;;20.72;41.29;101440.50;5018194;28;45565;-56
2021/10/25 00:52:55;;;;;;;;;20.50;19.00;;;;;20.72;41.41;101435.22;5018119;28;46630;-58
2021/10/25 00:55:22;;;;;;;;;20.00;19.25;;;;;20.71;41.74;101434.38;5017965;28;45451;-62
2021/10/25 00:57:47;;;;;;;;;17.00;17.00;;;;;20.70;41.62;101436.16;5018143;28;45297;-58
2021/10/25 01:00:13;;;;;;;;;19.25;18.25;;;;;20.69;41.51;101430.97;5018037;28;45418;-57
2021/10/25 01:02:39;;;;;;;;;20.00;16.75;;;;;20.68;41.34;101430.09;5017685;28;46435;-60
2021/10/25 01:05:05;;;;;;;;;21.50;15.75;;;;;20.69;41.22;101436.22;5016712;28;45544;-62
2021/10/25 01:07:31;;;;;;;;;16.75;16.25;;;;;20.69;41.29;101444.13;5017748;28;45222;-60
2021/10/25 01:09:56;;;;;;;;;18.25;16.50;;;;;20.66;41.78;101442.50;5018185;28;45615;-64
2021/10/25 01:12:22;;;;;;;;;16.75;16.00;;;;;20.67;41.20;101446.81;5017611;28;46700;-61
2021/10/25 01:14:47;;;;;;;;;18.75;16.25;;;;;20.67;41.41;101438.91;5017664;28;45379;-63
2021/10/25 01:17:15;;;;;;;;;17.25;16.50;;;;;20.67;41.53;101452.09;5017800;28;45251;-62
2021/10/25 01:19:41;;;;;;;;;17.00;16.75;;;;;20.66;41.78;101450.41;5017722;28;45454;-51
2021/10/25 01:22:06;;;;;;;;;18.25;16.00;;;;;20.65;41.18;101451.31;5016151;28;47230;-57
2021/10/25 01:24:32;;;;;;;;;10.25;9.00;;;;;20.66;41.68;101452.16;5017448;28;45474;-52
2021/10/25 01:26:57;;;;;;;;;16.75;15.25;;;;;20.65;41.68;101456.59;5017964;28;45406;-59
2021/10/25 01:29:23;;;;;;;;;15.25;15.25;;;;;20.65;40.90;101459.22;5017802;28;45530;-52
2021/10/25 01:31:49;;;;;;;;;17.25;15.75;;;;;20.65;41.16;101455.72;5017253;28;45421;-60
2021/10/25 01:34:15;;;;;;;;;18.50;16.75;;;;;20.62;41.26;101451.47;5017312;28;45316;-56
2021/10/25 01:36:41;;;;;;;;;15.25;14.50;;;;;20.64;41.38;101449.63;5017418;28;45328;-60
2021/10/25 01:39:08;;;;;;;;;15.50;13.25;;;;;20.64;41.44;101446.97;5017461;28;45593;-55
2021/10/25 01:41:34;;;;;;;;;14.50;13.50;;;;;20.62;41.76;101454.09;5017141;28;46333;-61
2021/10/25 01:43:59;;;;;;;;;15.75;15.25;;;;;20.63;41.43;101447.03;5017427;28;45438;-60
2021/10/25 01:46:24;;;;;;;;;18.75;15.75;;;;;20.64;41.52;101439.06;5017125;28;45340;-60
2021/10/25 01:48:50;;;;;;;;;15.25;15.25;;;;;20.63;41.29;101441.75;5017324;28;45303;-62
2021/10/25 01:51:16;;;;;;;;;16.00;14.75;;;;;20.63;41.22;101444.41;5016947;28;45443;-57
2021/10/25 01:53:42;;;;;;;;;14.50;12.50;;;;;20.61;41.31;101433.94;5017091;28;45465;-60
2021/10/25 01:56:09;;;;;;;;;17.00;15.00;;;;;20.63;41.66;101442.63;5017111;28;45409;-59
2021/10/25 01:58:35;;;;;;;;;17.50;13.75;;;;;20.62;41.52;101437.41;5017158;28;45526;-59
2021/10/25 02:01:00;;;;;;;;;16.25;16.25;;;;;20.62;41.45;101440.06;5017023;28;46555;-51
2021/10/25 02:03:27;;;;;;;;;15.75;14.00;;;;;20.61;41.28;101427.84;5016850;28;45470;-53
2021/10/25 02:05:52;;;;;;;;;14.75;14.75;;;;;20.60;41.78;101426.97;5016851;28;45304;-50
2021/10/25 02:08:18;;;;;;;;;15.25;12.75;;;;;20.60;41.22;101429.59;5016923;28;45321;-52
2021/10/25 02:10:43;;;;;;;;;11.50;10.75;;;;;20.60;41.81;101432.22;5016736;28;45320;-62
2021/10/25 02:13:12;;;;;;;;;15.50;15.00;;;;;20.57;41.41;101424.47;5016860;28;45448;-53
2021/10/25 02:15:37;;;;;;;;;14.50;13.75;;;;;20.59;41.26;101430.53;5015933;28;45487;-56
2021/10/25 02:18:03;;;;;;;;;15.25;13.50;;;;;20.58;41.23;101420.91;5016993;28;45447;-60
2021/10/25 02:20:28;;;;;;;;;13.50;11.50;;;;;20.58;41.43;101415.66;5016798;28;46248;-63
2021/10/25 02:22:54;;;;;;;;;15.25;15.00;;;;;20.57;41.61;101411.28;5016476;28;45383;-49
2021/10/25 02:25:19;;;;;;;;;16.50;14.75;;;;;20.58;41.72;101418.28;5016189;28;45453;-50
2021/10/25 02:27:45;;;;;;;;;12.50;12.25;;;;;20.58;41.76;101417.44;5016165;28;45302;-48
2021/10/25 02:30:10;;;;;;;;;12.00;12.00;;;;;20.58;41.23;101415.66;5016377;28;46104;-54
2021/10/25 02:32:36;;;;;;;;;14.75;12.00;;;;;20.58;41.74;101418.28;5016457;28;45359;-58
2021/10/25 02:35:03;;;;;;;;;12.50;10.75;;;;;20.57;41.72;101424.47;5016923;28;45321;-60
2021/10/25 02:37:28;;;;;;;;;13.75;12.50;;;;;20.57;41.69;101413.09;5016907;28;45474;-59
2021/10/25 02:39:54;;;;;;;;;12.00;12.00;;;;;20.54;41.61;101406.19;5016156;28;45642;-57
2021/10/25 02:42:19;;;;;;;;;13.00;13.00;;;;;20.57;41.59;101413.94;5016446;28;45498;-62
2021/10/25 02:44:44;;;;;;;;;13.50;13.25;;;;;20.54;41.31;101400.94;5016457;28;45414;-59
2021/10/25 02:47:11;;;;;;;;;13.00;12.00;;;;;20.57;41.36;101405.19;5016408;28;45254;-60
2021/10/25 02:49:36;;;;;;;;;16.00;12.25;;;;;20.54;41.72;101391.25;5016210;28;47175;-62
2021/10/25 02:52:02;;;;;;;;;13.25;12.00;;;;;20.56;41.51;101391.16;5016389;28;45396;-54
2021/10/25 02:54:29;;;;;;;;;15.75;13.75;;;;;20.55;41.40;101392.94;5016319;28;45367;-62
2021/10/25 02:56:54;;;;;;;;;14.25;12.75;;;;;20.55;41.74;101392.09;5016415;28;45262;-60
2021/10/25 02:59:20;;;;;;;;;16.50;14.25;;;;;20.55;41.34;101387.69;5016033;28;46550;-56
2021/10/25 03:01:46;;;;;;;;;16.25;14.00;;;;;20.55;41.36;101390.31;5014958;28;45210;-61
2021/10/25 03:04:12;;;;;;;;;12.00;12.00;;;;;20.53;41.76;101384.25;5016093;28;45309;-54
2021/10/25 03:06:38;;;;;;;;;11.00;10.25;;;;;20.52;41.25;101381.72;5016198;28;45277;-56
2021/10/25 03:09:05;;;;;;;;;13.50;13.50;;;;;20.53;41.38;101388.69;5016355;28;45554;-63
2021/10/25 03:11:31;;;;;;;;;10.75;8.50;;;;;20.52;41.41;101390.44;5016313;28;45326;-60
2021/10/25 03:13:56;;;;;;;;;16.25;12.75;;;;;20.53;41.38;101386.06;5016089;28;45419;-62
2021/10/25 03:16:22;;;;;;;;;13.00;9.00;;;;;20.53;41.21;101384.25;5016244;28;45372;-61
2021/10/25 03:18:49;;;;;;;;;12.25;11.00;;;;;20.51;41.80;101377.38;5015762;28;46058;-64
2021/10/25 03:21:15;;;;;;;;;11.75;11.50;;;;;20.53;41.33;101383.41;5015949;28;46010;-63
2021/10/25 03:23:41;;;;;;;;;13.25;12.00;;;;;20.53;41.85;101399.22;5015793;28;45296;-59
2021/10/25 03:26:06;;;;;;;;;13.25;12.75;;;;;20.51;41.66;101390.53;5014987;28;45474;-59
2021/10/25 03:28:32;;;;;;;;;12.25;10.25;;;;;20.52;41.33;101389.59;5019430;28;45356;-62
2021/10/25 03:30:58;;;;;;;;;13.75;10.50;;;;;20.51;41.29;101395.78;5019359;28;45194;-61
2021/10/25 03:33:23;;;;;;;;;15.75;11.25;;;;;20.51;41.25;101391.38;5019539;28;45428;-61
2021/10/25 03:35:49;;;;;;;;;14.25;10.00;;;;;20.51;41.71;101394.00;5019614;28;45311;-63
2021/10/25 03:38:16;;;;;;;;;12.25;12.00;;;;;20.51;41.65;101385.25;5017808;28;47206;-63
2021/10/25 03:40:45;;;;;;;;;12.00;12.00;;;;;20.49;41.68;101381.84;5019283;28;45431;-60
2021/10/25 03:43:12;;;;;;;;;10.25;10.25;;;;;20.51;41.51;101386.09;5018046;28;45373;-60
2021/10/25 03:45:43;;;;;;;;;12.25;11.00;;;;;20.51;41.66;101385.25;5019328;28;45314;-57
2021/10/25 03:48:17;;;;;;;;;10.50;10.25;;;;;20.50;41.21;101394.09;5018982;28;46414;-56
2021/10/25 03:50:44;;;;;;;;;7.25;7.25;;;;;20.51;41.85;101393.16;5018729;28;45335;-58
2021/10/25 03:53:24;;;;;;;;;14.25;9.50;;;;;20.50;41.74;101391.44;5019075;28;45262;-62
2021/10/25 04:30:13;;;;;;;;;10.75;10.75;;;;;20.46;41.32;101380.22;5018376;28;46207;-58
2021/10/25 04:32:39;;;;;;;;;10.00;10.00;;;;;20.46;41.81;101385.47;5018466;28;45785;-58
2021/10/25 04:35:05;;;;;;;;;10.25;10.00;;;;;20.45;41.90;101386.41;5018853;28;45435;-60
2021/10/25 04:37:31;;;;;;;;;9.50;9.50;;;;;20.45;41.76;101382.94;5018508;28;45271;-59
2021/10/25 04:39:56;;;;;;;;;10.00;9.00;;;;;20.45;41.25;101389.03;5018252;28;46126;-51
2021/10/25 04:42:21;;;;;;;;;11.75;8.75;;;;;20.46;41.22;101388.13;5018191;28;45411;-49
2021/10/25 04:44:49;;;;;;;;;8.50;8.25;;;;;20.45;41.86;101377.66;5018396;28;45452;-53
2021/10/25 04:47:15;;;;;;;;;10.25;10.25;;;;;20.45;41.82;101385.56;5018577;28;45241;-62
2021/10/25 04:49:42;;;;;;;;;8.25;7.25;;;;;20.45;41.36;101375.03;5018110;28;46530;-50
2021/10/25 04:52:09;;;;;;;;;8.25;8.25;;;;;20.45;41.17;101370.59;5018505;28;45872;-52
2021/10/25 04:54:35;;;;;;;;;9.75;9.25;;;;;20.45;41.35;101375.03;5018568;28;45427;-55
2021/10/25 04:57:01;;;;;;;;;9.00;8.00;;;;;20.44;41.91;101373.31;5018341;28;45625;-53
2021/10/25 04:59:26;;;;;;;;;10.50;9.75;;;;;20.44;42.02;101375.94;5049918;28;47077;-49
2021/10/25 05:01:52;;;;;;;;;9.25;7.25;;;;;20.42;41.77;101377.78;5017897;28;45406;-63
2021/10/25 05:04:18;;;;;;;;;6.75;6.75;;;;;20.44;41.94;101381.22;5017927;28;45462;-62
2021/10/25 05:06:43;;;;;;;;;9.00;9.00;;;;;20.43;41.94;101382.97;5017995;28;45348;-56
2021/10/25 05:09:08;;;;;;;;;10.25;10.25;;;;;20.44;41.90;101378.59;5017912;28;46713;-62
2021/10/25 05:11:34;;;;;;;;;12.00;9.75;;;;;20.41;41.84;101366.41;5017236;28;45379;-51
2021/10/25 05:13:59;;;;;;;;;7.25;7.25;;;;;20.42;41.77;101376.00;5017868;28;45383;-51
2021/10/25 05:16:25;;;;;;;;;13.00;9.75;;;;;20.42;41.84;101376.00;5017876;28;45218;-56
2021/10/25 05:18:51;;;;;;;;;8.75;8.00;;;;;20.41;42.05;101376.09;5017656;28;45972;-57
2021/10/25 05:21:16;;;;;;;;;8.50;7.50;;;;;20.43;41.81;101376.88;5017651;28;45420;-51
2021/10/25 05:23:42;;;;;;;;;9.00;9.00;;;;;20.42;41.63;101375.16;5017735;28;45268;-59
2021/10/25 05:26:07;;;;;;;;;9.25;8.00;;;;;20.42;41.60;101375.16;5018043;28;45654;-59
2021/10/25 05:28:33;;;;;;;;;10.00;9.00;;;;;20.41;42.16;101370.81;5016143;28;47134;-57
2021/10/25 05:30:58;;;;;;;;;8.50;6.75;;;;;20.40;42.19;101367.31;5017358;28;45187;-56
2021/10/25 05:33:23;;;;;;;;;10.00;10.00;;;;;20.40;41.71;101354.16;5017583;28;45319;-56
2021/10/25 05:35:49;;;;;;;;;8.00;8.00;;;;;20.40;42.18;101354.16;5017679;28;45588;-57
2021/10/25 05:38:15;;;;;;;;;10.75;9.25;;;;;20.38;41.62;101348.97;5017355;28;46269;-53
2021/10/25 05:40:41;;;;;;;;;7.00;7.00;;;;;20.38;41.67;101343.69;5017571;28;45328;-54
2021/10/25 05:43:07;;;;;;;;;8.75;8.00;;;;;20.41;42.09;101347.13;5017327;28;45492;-49
2021/10/25 05:45:33;;;;;;;;;8.00;7.75;;;;;20.39;42.05;101345.41;5017595;28;45614;-48
2021/10/25 05:47:58;;;;;;;;;10.75;9.75;;;;;20.39;41.76;101350.69;5017019;28;45470;-62
2021/10/25 05:50:24;;;;;;;;;12.25;9.00;;;;;20.38;41.75;101354.22;5016452;28;45355;-61
2021/10/25 05:52:49;;;;;;;;;9.50;9.50;;;;;20.39;41.84;101350.69;5017236;28;45388;-54
2021/10/25 05:55:21;;;;;;;;;8.75;8.75;;;;;20.39;41.98;101355.94;5017356;28;45518;-55
2021/10/25 05:57:47;;;;;;;;;9.00;8.00;;;;;20.37;42.11;101344.63;5016617;28;46703;-60
2021/10/25 06:00:13;;;;;;;;;8.00;8.00;;;;;20.36;41.84;101342.91;5017023;28;45832;-53
2021/10/25 06:02:39;;;;;;;;;8.75;8.00;;;;;20.38;41.70;101348.13;5017311;28;45343;-61
2021/10/25 06:05:06;;;;;;;;;7.75;7.75;;;;;20.37;42.34;101347.25;5017242;28;45438;-58
2021/10/25 06:07:32;;;;;;;;;10.75;7.75;;;;;20.39;41.96;101347.22;5016664;28;46480;-59
2021/10/25 06:09:57;;;;;;;;;10.75;9.00;;;;;20.38;42.19;101350.75;5016804;28;45227;-53
2021/10/25 06:12:25;;;;;;;;;6.00;6.00;;;;;20.35;42.08;101335.94;5015673;28;45388;-59
2021/10/25 06:14:51;;;;;;;;;8.75;7.50;;;;;20.36;42.06;101321.00;5016995;28;45373;-59
2021/10/25 06:19:51;;;;;;;;;9.00;7.75;;;;;20.38;41.77;101338.44;5016395;28;45447;-59
2021/10/25 06:22:19;;;;;;;;;7.00;7.00;;;;;20.36;42.47;101342.91;5016657;28;45416;-61
2021/10/25 06:24:46;;;;;;;;;7.00;7.00;;;;;20.36;42.25;101348.19;5016974;28;45549;-61
2021/10/25 06:27:12;;;;;;;;;8.00;8.00;;;;;20.37;42.37;101352.53;5016731;28;47167;-54
2021/10/25 06:29:37;;;;;;;;;8.50;8.00;;;;;20.37;42.17;101357.78;5016471;28;45341;-62
2021/10/25 06:32:03;;;;;;;;;5.75;5.75;;;;;20.36;41.94;101360.50;5048578;28;45378;-58
2021/10/25 06:34:34;;;;;;;;;9.00;9.00;;;;;20.35;42.47;101354.38;5016657;28;46091;-56
2021/10/25 06:36:59;;;;;;;;;10.00;8.75;;;;;20.35;42.13;101354.38;5016326;28;47490;-62
2021/10/25 06:39:33;;;;;;;;;9.75;9.75;;;;;20.35;41.98;101353.53;5016322;28;45253;-56
2021/10/25 06:41:58;;;;;;;;;8.00;8.00;;;;;20.36;42.37;101371.88;5016568;28;45316;-55
2021/10/25 06:44:24;;;;;;;;;10.00;8.00;;;;;20.34;42.59;101373.72;5048693;28;45467;-50
2021/10/25 06:46:50;;;;;;;;;7.00;7.00;;;;;20.35;42.29;101380.69;5016270;28;47296;-59
2021/10/25 06:49:15;;;;;;;;;8.25;7.75;;;;;20.34;42.38;101378.97;5016279;28;45779;-54
2021/10/25 06:51:41;;;;;;;;;7.25;7.25;;;;;20.35;42.66;101375.44;5016740;28;45948;-61
2021/10/25 06:54:07;;;;;;;;;9.00;9.00;;;;;20.34;41.92;101375.50;5016562;28;45214;-61
2021/10/25 06:56:33;;;;;;;;;7.00;7.00;;;;;20.34;42.19;101373.72;5016174;28;46206;-61
2021/10/25 06:58:58;;;;;;;;;9.75;6.75;;;;;20.34;42.34;101384.25;5016231;28;45332;-62
2021/10/25 07:01:25;;;;;;;;;10.00;7.50;;;;;20.34;42.50;101386.88;5016400;28;45297;-60
2021/10/25 07:03:52;;;;;;;;;10.50;9.00;;;;;20.31;42.21;101386.16;5019886;28;45302;-61
2021/10/25 07:06:18;;;;;;;;;8.00;7.25;;;;;20.31;42.54;101387.03;5019518;28;45603;-60
2021/10/25 07:08:45;;;;;;;;;10.25;8.25;;;;;20.33;42.49;101390.47;5019954;28;45410;-63
2021/10/25 07:11:14;;;;;;;;;8.75;7.75;;;;;20.32;42.50;101391.38;5019980;28;45483;-62
2021/10/25 07:13:45;;;;;;;;;7.25;6.50;;;;;20.33;42.43;101390.47;5019862;28;45429;-61
2021/10/25 07:16:18;;;;;;;;;8.50;8.00;;;;;20.33;42.28;101402.75;5018306;28;46462;-60
2021/10/25 07:21:49;;;;;;;;;6.75;6.75;;;;;20.32;42.36;101404.53;5019898;28;45395;-60
2021/10/25 08:00:10;;;;;;;;;10.00;9.25;;;;;20.05;43.45;101425.91;5018685;28;45726;-50
2021/10/25 08:02:36;;;;;;;;;11.50;8.50;;;;;20.05;43.42;101417.16;5016666;28;45775;-59
2021/10/25 08:07:38;;;;;;;;;14.75;11.75;;;;;20.04;43.53;101439.97;5018875;28;45443;-64
2021/10/25 08:12:54;;;;;;;;;13.75;11.25;;;;;19.98;43.79;101437.63;5018169;28;45191;-61
2021/10/25 08:15:22;;;;;;;;;14.50;12.00;;;;;19.98;43.70;101442.88;5018617;28;45423;-64
2021/10/25 08:17:52;;;;;;;;;11.75;10.00;;;;;19.99;44.24;101435.84;5018657;28;45449;-54
2021/10/25 08:20:17;;;;;;;;;10.00;8.00;;;;;19.97;43.84;101433.28;5001632;28;47422;-53
2021/10/25 08:22:43;;;;;;;;;10.00;10.00;;;;;19.98;43.62;101436.75;5018465;28;45429;-57
2021/10/25 08:25:09;;;;;;;;;12.75;11.00;;;;;19.97;43.69;101430.66;5018683;28;45337;-64
2021/10/25 08:27:36;;;;;;;;;10.25;10.25;;;;;20.00;44.29;101430.53;5018660;28;45349;-66
2021/10/25 08:30:03;;;;;;;;;11.00;10.75;;;;;20.00;44.00;101433.16;5018277;28;46567;-65
2021/10/25 08:40:27;;;;;;;;;13.25;11.50;;;;;20.10;43.90;101422.22;5018251;28;45859;-66
2021/10/25 08:42:54;;;;;;;;;8.00;7.25;;;;;20.13;44.08;101422.06;5018199;28;45916;-67
2021/10/25 08:45:28;;;;;;;;;11.50;10.50;;;;;20.11;43.64;101418.69;5018354;28;45338;-63
2021/10/25 08:47:54;;;;;;;;;13.00;12.50;;;;;20.11;44.23;101418.69;5018404;28;45382;-67
2021/10/25 08:50:23;;;;;;;;;11.25;11.25;;;;;20.06;43.72;101419.72;5018036;28;46472;-59
2021/10/25 08:52:49;;;;;;;;;13.25;12.50;;;;;20.06;44.05;101411.81;5018437;28;45231;-56
2021/10/25 08:55:17;;;;;;;;;16.25;12.50;;;;;20.03;43.77;101422.47;5018514;28;45408;-57
2021/10/25 08:57:43;;;;;;;;;12.00;12.00;;;;;20.01;43.79;101419.06;5016946;28;45645;-59
2021/10/25 09:00:14;;;;;;;;;10.75;9.75;;;;;20.01;43.86;101420.84;5017844;28;45375;-54
2021/10/25 09:02:41;;;;;;;;;13.75;10.00;;;;;20.00;44.06;101422.63;5017739;28;45309;-52
2021/10/25 09:05:16;;;;;;;;;12.25;11.25;;;;;19.98;43.88;101419.22;5017788;28;45393;-52
2021/10/25 09:08:11;;;;;;;;;11.00;9.50;;;;;19.98;43.94;101418.34;5018083;28;45370;-51
2021/10/25 09:10:42;;;;;;;;;14.50;13.25;;;;;19.95;44.22;101414.06;5017739;28;45415;-47
2021/10/25 09:13:16;;;;;;;;;13.50;11.75;;;;;19.95;43.75;101413.22;5017698;28;45181;-60
2021/10/25 09:15:45;;;;;;;;;13.75;12.00;;;;;19.94;43.60;101409.72;5017898;28;45327;-64
2021/10/25 09:18:19;;;;;;;;;13.00;11.50;;;;;19.94;43.65;101396.56;5017979;28;45339;-59
2021/10/25 09:20:51;;;;;;;;;13.25;12.50;;;;;19.91;44.12;101401.97;5017590;28;46594;-64
2021/10/25 09:23:25;;;;;;;;;16.00;11.75;;;;;19.87;44.13;101395.97;4999976;28;45436;-65
2021/10/25 09:25:56;;;;;;;;;11.50;10.00;;;;;19.85;44.14;101402.22;5016609;28;45461;-61
2021/10/25 09:28:26;;;;;;;;;13.00;12.00;;;;;19.83;43.97;101396.16;5017777;28;45413;-64
2021/10/25 09:31:01;;;;;;;;;12.50;11.00;;;;;19.81;43.97;101398.88;5017342;28;47393;-60
2021/10/25 09:33:39;;;;;;;;;11.25;11.25;;;;;19.81;43.86;101400.63;5017386;28;45230;-62
2021/10/25 09:36:10;;;;;;;;;12.50;9.00;;;;;19.83;44.11;101404.03;4999689;28;45817;-63
2021/10/25 09:49:34;;;;;;;;;13.50;13.50;;;;;19.88;45.46;101407.38;5017447;28;45422;-67
2021/10/25 09:52:06;;;;;;;;;18.50;15.25;;;;;19.86;45.25;101398.69;5016242;28;46465;-65
2021/10/25 09:54:33;;;;;;;;;15.25;13.25;;;;;19.88;45.44;101396.84;5016586;28;45873;-61
2021/10/25 09:57:06;;;;;;;;;15.50;13.75;;;;;19.91;45.50;101407.22;5016628;28;45494;-62
2021/10/25 09:59:47;;;;;;;;;13.25;10.00;;;;;19.91;45.23;101413.34;5016954;28;45950;-62
2021/10/25 10:02:14;;;;;;;;;11.25;11.25;;;;;19.95;45.71;101414.06;5016175;28;45367;-54
2021/10/25 10:04:41;;;;;;;;;16.25;9.50;;;;;19.97;45.59;101406.97;5015724;28;45736;-56
2021/10/25 10:07:11;;;;;;;;;9.50;9.50;;;;;20.02;45.35;101410.25;5016982;28;45448;-63
2021/10/25 10:09:38;;;;;;;;;11.25;11.25;;;;;20.04;45.07;101403.13;5013630;28;45510;-58
2021/10/25 10:12:04;;;;;;;;;14.25;9.75;;;;;20.05;45.33;101410.13;5014722;28;45740;-56
2021/10/25 10:14:29;;;;;;;;;14.50;10.00;;;;;20.11;45.42;101413.41;5004358;28;45412;-57
2021/10/25 10:16:57;;;;;;;;;14.00;12.00;;;;;20.13;45.10;101403.66;4996470;28;45245;-59
2021/10/25 10:19:24;;;;;;;;;12.50;10.00;;;;;20.16;45.05;101406.16;5016658;28;45413;-55
2021/10/25 10:21:55;;;;;;;;;15.50;13.00;;;;;20.19;44.96;101416.53;5015863;28;47257;-58
2021/10/25 10:24:29;;;;;;;;;13.50;11.25;;;;;20.20;44.91;101413.84;5016734;28;45410;-57
2021/10/25 10:26:57;;;;;;;;;12.25;10.50;;;;;20.22;44.96;101416.41;4998242;28;45804;-60
2021/10/25 10:29:23;;;;;;;;;13.50;10.00;;;;;20.23;45.03;101418.09;5016648;28;45419;-61
2021/10/25 10:32:00;;;;;;;;;11.25;10.50;;;;;20.22;45.10;101412.00;5016532;28;47103;-62
2021/10/25 10:34:25;;;;;;;;;15.25;11.00;;;;;20.22;45.17;101416.41;5016369;28;45365;-61
2021/10/25 10:36:55;;;;;;;;;10.00;9.50;;;;;20.22;44.99;101419.88;5016265;28;45241;-60
2021/10/25 10:39:26;;;;;;;;;11.50;9.25;;;;;20.22;45.30;101424.31;5016797;28;45523;-59
2021/10/25 10:42:01;;;;;;;;;10.00;10.00;;;;;20.23;46.21;101436.53;5016556;28;45432;-59
2021/10/25 10:44:28;;;;;;;;;14.00;12.25;;;;;20.21;45.94;101431.34;5015929;28;45409;-61
2021/10/25 10:46:57;;;;;;;;;11.75;10.25;;;;;20.26;46.64;101438.19;5016434;28;45236;-53
2021/10/25 10:49:30;;;;;;;;;22.00;18.75;;;;;20.26;47.21;101436.41;5016466;28;45465;-55
2021/10/25 10:57:30;;;;;;;;;47.50;36.75;;;;;20.21;46.73;101431.34;5016091;28;45444;-50
2021/10/25 10:59:59;;;;;;;;;36.25;31.00;;;;;20.23;46.68;101436.53;5016016;28;45452;-47
2021/10/25 11:02:25;;;;;;;;;31.50;28.00;;;;;20.19;46.49;101440.22;5015891;28;46321;-50
2021/10/25 11:04:50;;;;;;;;;28.25;27.00;;;;;20.17;46.28;101434.19;5015845;28;45356;-57
2021/10/25 11:07:16;;;;;;;;;40.75;31.75;;;;;20.14;46.70;101443.06;5015764;28;45459;-49
2021/10/25 11:09:41;;;;;;;;;73.50;55.50;;;;;20.11;46.79;101435.31;5015989;28;45579;-53
2021/10/25 11:12:09;;;;;;;;;118.67;103.33;;;;;20.09;47.00;101437.16;5015356;28;46008;-56
2021/10/25 11:14:36;;;;;;;;;145.50;123.25;;;;;20.09;47.43;101442.41;5015265;28;45438;-50
2021/10/25 11:19:50;;;;;;;;;75.00;58.25;;;;;20.12;46.96;101437.00;5015919;28;45406;-54
2021/10/25 11:22:33;;;;;;;;;64.50;49.00;;;;;20.08;46.58;101431.03;5015365;28;46493;-47
2021/10/25 11:25:00;;;;;;;;;66.50;51.50;;;;;19.99;47.24;101426.19;5015523;28;45840;-51
2021/10/25 11:27:32;;;;;;;;;62.00;48.00;;;;;19.92;46.84;101414.19;5015767;28;45413;-55
2021/10/25 11:30:16;;;;;;;;;53.00;43.50;;;;;19.84;47.02;101417.16;5015638;28;45436;-53
2021/10/25 11:32:44;;;;;;;;;52.00;42.00;;;;;19.79;47.52;101413.84;5015237;28;47571;-52
2021/10/25 11:35:12;;;;;;;;;43.50;34.75;;;;;19.73;47.30;101409.72;5015518;28;45887;-55
2021/10/25 11:37:40;;;;;;;;;42.25;30.00;;;;;19.69;47.83;101412.53;4981615;28;45345;-60
2021/10/25 11:40:11;;;;;;;;;45.75;33.75;;;;;19.65;47.33;101411.81;5015516;28;45611;-57
2021/10/25 11:42:39;;;;;;;;;45.50;32.00;;;;;19.61;47.62;101410.22;5014447;28;46448;-56
2021/10/25 11:45:05;;;;;;;;;28.75;27.50;;;;;19.54;47.89;101412.25;5015190;28;45423;-63
2021/10/25 11:47:39;;;;;;;;;31.25;28.75;;;;;19.49;47.54;101421.25;5015215;28;45442;-65
2021/10/25 11:50:06;;;;;;;;;39.75;28.25;;;;;19.47;48.17;101416.06;5018990;28;45531;-60
2021/10/25 11:52:53;;;;;;;;;27.00;23.50;;;;;19.47;48.06;101413.44;5000707;28;45888;-63
2021/10/25 11:55:23;;;;;;;;;30.75;27.00;;;;;19.45;48.24;101418.78;5018487;28;45855;-67
2021/10/25 11:57:55;;;;;;;;;20.50;18.75;;;;;19.56;48.49;101412.22;5018483;28;45330;-64
2021/10/25 12:00:24;;;;;;;;;26.75;21.75;;;;;19.62;47.76;101407.53;5018687;28;45554;-65
2021/10/25 12:02:49;;;;;;;;;20.50;18.50;;;;;19.66;47.66;101405.66;5018251;28;45568;-66
2021/10/25 12:05:20;;;;;;;;;28.75;25.25;;;;;19.73;47.96;101404.44;5018616;28;45298;-66
2021/10/25 12:07:56;;;;;;;;;30.25;25.25;;;;;19.81;47.31;101416.41;5018502;28;45429;-60
2021/10/25 12:10:25;;;;;;;;;28.00;24.00;;;;;19.86;47.62;101410.06;5018634;28;45333;-64
2021/10/25 12:12:57;;;;;;;;;34.50;29.00;;;;;19.89;47.39;101412.56;5018301;28;46311;-60
2021/10/25 12:15:24;;;;;;;;;34.25;29.25;;;;;19.93;47.57;101408.03;5018436;28;45417;-60
2021/10/25 12:17:50;;;;;;;;;39.25;30.50;;;;;19.96;47.45;101405.25;5018420;28;45460;-64
2021/10/25 12:20:33;;;;;;;;;39.25;29.50;;;;;20.00;48.02;101406.84;5018441;28;45190;-64
2021/10/25 12:23:10;;;;;;;;;32.25;26.75;;;;;20.00;48.02;101406.84;5018173;28;46496;-52
2021/10/25 12:25:36;;;;;;;;;33.75;29.75;;;;;20.04;47.96;101405.78;5018139;28;45745;-53
2021/10/25 12:28:10;;;;;;;;;37.25;31.00;;;;;20.07;48.37;101397.75;5017996;28;45176;-65
2021/10/25 12:30:36;;;;;;;;;37.25;30.25;;;;;20.07;49.56;101397.75;5018255;28;45615;-64
2021/10/25 12:33:02;;;;;;;;;31.50;26.25;;;;;20.08;49.35;101382.78;5018035;28;45494;-62
2021/10/25 12:35:49;;;;;;;;;40.50;30.00;;;;;20.12;50.13;101380.91;5018001;28;45351;-61
2021/10/25 12:38:19;;;;;;;;;28.00;25.25;;;;;20.13;50.17;101374.69;5018185;28;45580;-61
2021/10/25 12:40:45;;;;;;;;;28.50;22.75;;;;;20.14;50.21;101373.78;5018234;28;45470;-63
2021/10/25 12:43:11;;;;;;;;;30.25;26.00;;;;;20.14;50.31;101371.16;5017902;28;47044;-61
2021/10/25 12:45:41;;;;;;;;;28.50;25.00;;;;;20.14;50.04;101365.88;5017710;28;45420;-61
2021/10/25 12:48:09;;;;;;;;;29.75;25.50;;;;;20.14;50.20;101376.41;5017724;28;45421;-64
2021/10/25 12:50:37;;;;;;;;;22.00;19.25;;;;;20.15;50.05;101379.00;5018158;28;45465;-62
2021/10/25 12:53:11;;;;;;;;;26.25;22.25;;;;;20.15;50.19;101373.72;5017754;28;46462;-58
2021/10/25 12:55:37;;;;;;;;;25.25;22.50;;;;;20.15;49.77;101379.00;4999760;28;45335;-54
2021/10/25 12:58:11;;;;;;;;;25.75;21.00;;;;;20.17;49.92;101376.28;5017703;28;45283;-59
2021/10/25 13:00:38;;;;;;;;;24.00;20.50;;;;;20.17;49.85;101368.38;5018115;28;45164;-60
2021/10/25 13:03:10;;;;;;;;;27.00;18.50;;;;;20.18;49.93;101378.00;5016076;28;46735;-63